Home > Products > Valid Products > TAF

000
FTUS44 KOHX 211100
TAFCKV
TAF
KCKV 211126Z 2112/2212 22006KT P6SM SKC
     FM211500 24012G20KT P6SM SCT150 BKN250
     FM220000 22010KT P6SM OVC100=



000
FTUS44 KOHX 211100
TAFCSV
TAF
KCSV 211126Z 2112/2212 18005KT P6SM SKC
     FM211600 27010G18KT P6SM SCT150 BKN250
     FM220000 23006KT P6SM BKN250=



000
FTUS44 KOHX 211100
TAFBNA
TAF
KBNA 211126Z 2112/2212 18006KT P6SM SKC
     FM211500 24012G20KT P6SM SCT150 BKN250
     FM212300 22010KT P6SM BKN250=



000
FTUS44 KOHX 211100
TAFCSV
TAF
KCSV 211126Z 2112/2212 18005KT P6SM SKC
     FM211600 27010G18KT P6SM SCT150 BKN250
     FM220000 23006KT P6SM BKN250=



000
FTUS44 KOHX 211100
TAFBNA
TAF
KBNA 211126Z 2112/2212 18006KT P6SM SKC
     FM211500 24012G20KT P6SM SCT150 BKN250
     FM212300 22010KT P6SM BKN250=



000
FTUS44 KOHX 211100
TAFCKV
TAF
KCKV 211126Z 2112/2212 22006KT P6SM SKC
     FM211500 24012G20KT P6SM SCT150 BKN250
     FM220000 22010KT P6SM OVC100=



000
FTUS44 KOHX 210500
TAFBNA
TAF
KBNA 210529Z 2106/2206 23004KT P6SM SCT080
     FM211500 24010G18KT P6SM SCT150 BKN250=



000
FTUS44 KOHX 210500
TAFCKV
TAF
KCKV 210529Z 2106/2206 24004KT P6SM SCT080
     FM211500 24012G20KT P6SM SCT150 BKN250=



000
FTUS44 KOHX 210500
TAFCSV
TAF
KCSV 210529Z 2106/2206 26004KT P6SM SCT080
     FM211600 27010G18KT P6SM SCT150 BKN250=



000
FTUS44 KOHX 210500
TAFBNA
TAF
KBNA 210529Z 2106/2206 23004KT P6SM SCT080
     FM211500 24010G18KT P6SM SCT150 BKN250=



000
FTUS44 KOHX 210500
TAFCSV
TAF
KCSV 210529Z 2106/2206 26004KT P6SM SCT080
     FM211600 27010G18KT P6SM SCT150 BKN250=



000
FTUS44 KOHX 210500
TAFCKV
TAF
KCKV 210529Z 2106/2206 24004KT P6SM SCT080
     FM211500 24012G20KT P6SM SCT150 BKN250=



000
FTUS44 KOHX 202300
TAFBNA
TAF
KBNA 202329Z 2100/2124 27009KT P6SM SCT080
     FM210600 24005KT P6SM SKC
     FM211600 25010G18KT P6SM SCT150 BKN250=



000
FTUS44 KOHX 202300
TAFCKV
TAF
KCKV 202329Z 2100/2124 27009KT P6SM SCT080
     FM210500 24005KT P6SM SKC
     FM211500 24012G20KT P6SM SCT150 BKN250=



000
FTUS44 KOHX 202300
TAFCSV
TAF
KCSV 202329Z 2100/2124 26010G18KT P6SM BKN040
     FM210100 26006KT P6SM SCT040
     FM210600 27004KT P6SM SKC
     FM211600 27010G18KT P6SM SCT150 BKN250=



000
FTUS44 KOHX 202300
TAFBNA
TAF
KBNA 202329Z 2100/2124 27009KT P6SM SCT080
     FM210600 24005KT P6SM SKC
     FM211600 25010G18KT P6SM SCT150 BKN250=



000
FTUS44 KOHX 202300
TAFCKV
TAF
KCKV 202329Z 2100/2124 27009KT P6SM SCT080
     FM210500 24005KT P6SM SKC
     FM211500 24012G20KT P6SM SCT150 BKN250=



000
FTUS44 KOHX 202300
TAFCSV
TAF
KCSV 202329Z 2100/2124 26010G18KT P6SM BKN040
     FM210100 26006KT P6SM SCT040
     FM210600 27004KT P6SM SKC
     FM211600 27010G18KT P6SM SCT150 BKN250=



000
FTUS44 KOHX 202200 AAA
TAFCKV
TAF AMD
KCKV 202220Z 2022/2118 28012G20KT P6SM SCT050
     FM210100 26008KT P6SM SCT080
     FM211500 24010G20KT P6SM SCT100=



000
FTUS44 KOHX 202200 AAC
TAFCSV
TAF AMD
KCSV 202216Z 2022/2118 26010G20KT P6SM SCT025 BKN035
      TEMPO 2022/2024 5SM -SHRA BKN025
     FM210000 27006KT P6SM BKN040
     FM210600 27005KT P6SM SCT040=



000
FTUS44 KOHX 202100 AAB
TAFBNA
TAF AMD
KBNA 202103Z 2021/2118 27010G20KT P6SM BKN060
     FM210600 24005KT P6SM SCT050=



000
FTUS44 KOHX 202000 AAA
TAFBNA
TAF AMD
KBNA 202046Z 2021/2118 26010G20KT P6SM VCSH SCT023 BKN035
     FM202100 27009KT P6SM BKN040
     FM210600 24005KT P6SM SCT050=



000
FTUS44 KOHX 202000 AAB
TAFCSV
TAF AMD
KCSV 202043Z 2021/2118 26015G23KT P6SM SCT020 BKN035
     FM210000 27006KT P6SM BKN030
     FM210600 27005KT P6SM SCT030=



000
FTUS44 KOHX 202000 AAB
TAFCSV
TAF AMD
KCSV 202043Z 2021/2118 26015G23KT P6SM SCT020 BKN035
     FM210000 27006KT P6SM BKN030
     FM210600 27005KT P6SM SCT030=



000
FTUS44 KOHX 201800 AAA
TAFCSV
TAF AMD
KCSV 201828Z 2018/2118 28015G23KT P6SM SCT020 BKN035
     FM210000 27006KT P6SM BKN030
     FM210600 27005KT P6SM SCT030=



000
FTUS44 KOHX 201700
TAFBNA
TAF
KBNA 201739Z 2018/2118 22014G23KT P6SM VCSH SCT023 BKN035
     FM202100 27009KT P6SM BKN040
     FM210600 24005KT P6SM SCT050=



000
FTUS44 KOHX 201700
TAFCKV
TAF
KCKV 201739Z 2018/2118 26010KT P6SM SCT020 BKN035
     FM202100 27012G18KT P6SM SCT035
     FM210600 25006KT P6SM SCT050=



000
FTUS44 KOHX 201700
TAFCSV
TAF
KCSV 201739Z 2018/2118 24015G23KT P6SM SCT020 BKN035
     FM210000 27006KT P6SM BKN030
     FM210600 27005KT P6SM SCT030=



000
FTUS44 KOHX 201600 AAB
TAFBNA
TAF AMD
KBNA 201600Z 2016/2112 22014G23KT P6SM VCSH SCT023 BKN035
     FM202100 27010G17KT P6SM SCT035=



000
FTUS44 KOHX 201600 AAB
TAFBNA
TAF AMD
KBNA 201600Z 2016/2112 22014G23KT P6SM VCSH SCT023 BKN035
     FM202100 27010G17KT P6SM SCT035=



000
FTUS44 KOHX 201500 AAA
TAFCSV
TAF AMD
KCSV 201513Z 2015/2112 26015G23KT P6SM SCT020 BKN035
      TEMPO 2018/2022 2SM -RA BKN020
     FM210100 27008KT P6SM SCT030=



000
FTUS44 KOHX 201400 AAD
TAFCKV
TAF AMD
KCKV 201443Z 2015/2112 26010KT P6SM VCSH SCT020 BKN035
      TEMPO 2015/2019 26010G20KT 2SM -RA BKN030
     FM202100 27012G18KT P6SM SCT035=



000
FTUS44 KOHX 201400 AAC
TAFCKV
TAF AMD
KCKV 201438Z 2015/2112 26010KT P6SM VCSH SCT020 BKN035
      TEMPO 2015/2019 26010G20KT 5SM -RA BKN030
     FM202100 27012G18KT P6SM SCT035=



000
FTUS44 KOHX 201400 AAB
TAFCKV
TAF AMD
KCKV 201413Z 2014/2112 26012G22KT P6SM SCT020 BKN035
     FM202100 27012G18KT P6SM SCT035=



000
FTUS44 KOHX 201400 AAB
TAFCKV
TAF AMD
KCKV 201413Z 2014/2112 26012G22KT P6SM SCT020 BKN035
     FM202100 27012G18KT P6SM SCT035=



000
FTUS44 KOHX 201300 AAA
TAFBNA
TAF AMD
KBNA 201352Z 2014/2112 24008KT P6SM SCT020 BKN035
     FM201400 26014G23KT P6SM BKN025
     FM202100 27010G17KT P6SM SCT035=



000
FTUS44 KOHX 201300 AAA
TAFBNA
TAF AMD
KBNA 201352Z 2014/2112 24008KT P6SM SCT020 BKN035
     FM201400 26014G23KT P6SM BKN025
     FM202100 27010G17KT P6SM SCT035=



000
FTUS44 KOHX 201300 AAA
TAFCKV
TAF AMD
KCKV 201350Z 2014/2112 25009KT P6SM SCT015 BKN035
     FM201400 26015G24KT P6SM BKN025
     FM202100 27012G18KT P6SM SCT035=



000
FTUS44 KOHX 201100
TAFBNA
TAF
KBNA 201120Z 2012/2112 23008KT P6SM BKN020
     FM201400 26014G23KT P6SM BKN025
     FM202100 27010G17KT P6SM SCT035=



000
FTUS44 KOHX 201100
TAFCSV
TAF
KCSV 201120Z 2012/2112 21007KT P6SM BKN015
     FM201500 26015G23KT P6SM BKN020
     FM210100 27008KT P6SM SCT030=



000
FTUS44 KOHX 201100
TAFCKV
TAF
KCKV 201120Z 2012/2112 23009KT P6SM BKN015
     FM201400 26015G24KT P6SM BKN025
     FM202100 27012G18KT P6SM SCT035=



000
FTUS44 KOHX 200900 AAD
TAFCSV
TAF AMD
KCSV 200952Z 2010/2106 20007KT P6SM OVC070
     FM201500 23016G22KT P6SM OVC015
     FM210200 28009KT P6SM SCT040=



000
FTUS44 KOHX 200900 AAB
TAFCKV
TAF AMD
KCKV 200921Z 2009/2106 20007KT P6SM SCT012 OVC027
      TEMPO 2009/2012 5SM BR BKN006
     FM201400 25017G24KT P6SM OVC015
     FM210000 31009KT P6SM SCT050=



000
FTUS44 KOHX 200900 AAC
TAFBNA
TAF AMD
KBNA 200921Z 2009/2106 19007KT P6SM BKN027 OVC090
     FM201100 20008G15KT P6SM BKN015
     FM201400 24016G22KT P6SM OVC015
     FM210100 31009KT P6SM SCT050=



000
FTUS44 KOHX 200900 AAC
TAFCSV
TAF AMD
KCSV 200921Z 2009/2106 22007G15KT 4SM -TSRA SCT014 OVC040CB
     FM201000 19006KT P6SM OVC040
     FM201500 23016G22KT P6SM OVC015
     FM210200 28009KT P6SM SCT040=



000
FTUS44 KOHX 200800 AAB
TAFBNA
TAF AMD
KBNA 200802Z 2008/2106 19007KT P6SM OVC090
     FM201100 20008KT 4SM BR OVC010
     FM201500 24016G22KT P6SM OVC015
     FM210100 31009KT P6SM SCT050=



000
FTUS44 KOHX 200800 AAB
TAFCSV
TAF AMD
KCSV 200802Z 2008/2106 22006KT P6SM VCSH OVC080
     FM200830 25015G30KT 2SM TSRA BKN030CB
     FM200915 22007KT 4SM -TSRA OVC030CB
     FM201030 19006KT P6SM VCSH OVC020
     FM201500 23016G22KT P6SM OVC015
     FM210200 28009KT P6SM SCT040=



000
FTUS44 KOHX 200600 AAA
TAFCSV
TAF AMD
KCSV 200654Z 2007/2106 22006KT P6SM SKC
     FM200830 25015G30KT 2SM TSRA BKN030CB
     FM200915 22007KT 4SM -TSRA OVC030CB
     FM201100 19006KT P6SM VCSH OVC020
     FM201500 23016G22KT P6SM OVC015
     FM210200 28009KT P6SM SCT040=



000
FTUS44 KOHX 200600 AAA
TAFCSV
TAF AMD
KCSV 200654Z 2007/2106 22006KT P6SM SKC
     FM200830 25015G30KT 2SM TSRA BKN030CB
     FM200915 22007KT 4SM -TSRA OVC030CB
     FM201100 19006KT P6SM VCSH OVC020
     FM201500 23016G22KT P6SM OVC015
     FM210200 28009KT P6SM SCT040=



000
FTUS44 KOHX 200600 AAA
TAFCKV
TAF AMD
KCKV 200654Z 2007/2106 19007KT P6SM VCSH OVC040
     FM200900 18007KT 2SM BR SCT005 OVC100
     FM201400 25017G24KT P6SM OVC015
     FM210000 31009KT P6SM SCT050=



000
FTUS44 KOHX 200600 AAA
TAFCKV
TAF AMD
KCKV 200654Z 2007/2106 19007KT P6SM VCSH OVC040
     FM200900 18007KT 2SM BR SCT005 OVC100
     FM201400 25017G24KT P6SM OVC015
     FM210000 31009KT P6SM SCT050=



000
FTUS44 KOHX 200600 AAA
TAFBNA
TAF AMD
KBNA 200654Z 2007/2106 19006KT 4SM -TSRA OVC040CB
     FM200800 22007KT P6SM VCSH OVC040
     FM201100 20008KT 4SM BR OVC010
     FM201500 24016G22KT P6SM OVC015
     FM210100 31009KT P6SM SCT050=



000
FTUS44 KOHX 200600 AAA
TAFBNA
TAF AMD
KBNA 200654Z 2007/2106 19006KT 4SM -TSRA OVC040CB
     FM200800 22007KT P6SM VCSH OVC040
     FM201100 20008KT 4SM BR OVC010
     FM201500 24016G22KT P6SM OVC015
     FM210100 31009KT P6SM SCT050=



000
FTUS44 KOHX 200500
TAFCSV
TAF
KCSV 200522Z 2006/2106 22006KT P6SM SKC
     FM200900 21005KT 4SM -TSRA BKN030CB
      TEMPO 2009/2011 1SM TSRA BKN010CB OVC030
     FM201100 19006KT 5SM -SHRA OVC020
     FM201500 23016G22KT P6SM OVC015
     FM210200 28009KT P6SM SCT040=



000
FTUS44 KOHX 200500
TAFCKV
TAF
KCKV 200522Z 2006/2106 19007KT 4SM -TSRA OVC040CB
      TEMPO 2006/2007 2SM TSRA BKN020CB OVC040
     FM200800 19006KT 4SM -SHRA OVC010
     FM201000 18007KT 2SM BR OVC005
     FM201500 25017G24KT P6SM OVC015
     FM210000 31009KT P6SM SCT050=



000
FTUS44 KOHX 200500
TAFBNA
TAF
KBNA 200522Z 2006/2106 19006KT 4SM -TSRA OVC040CB
      TEMPO 2006/2007 25020G40KT 2SM TSRA OVC020CB
     FM200900 22007KT 4SM -SHRA OVC020
     FM201100 20008KT 4SM BR OVC010
     FM201500 24016G22KT P6SM OVC015
     FM210100 31009KT P6SM SCT050=



000
FTUS44 KOHX 200500
TAFBNA
TAF
KBNA 200522Z 2006/2106 19006KT 4SM -TSRA OVC040CB
      TEMPO 2006/2007 25020G40KT 2SM TSRA OVC020CB
     FM200900 22007KT 4SM -SHRA OVC020
     FM201100 20008KT 4SM BR OVC010
     FM201500 24016G22KT P6SM OVC015
     FM210100 31009KT P6SM SCT050=



000
FTUS44 KOHX 200500
TAFCSV
TAF
KCSV 200522Z 2006/2106 22006KT P6SM SKC
     FM200900 21005KT 4SM -TSRA BKN030CB
      TEMPO 2009/2011 1SM TSRA BKN010CB OVC030
     FM201100 19006KT 5SM -SHRA OVC020
     FM201500 23016G22KT P6SM OVC015
     FM210200 28009KT P6SM SCT040=



000
FTUS44 KOHX 200500
TAFCKV
TAF
KCKV 200522Z 2006/2106 19007KT 4SM -TSRA OVC040CB
      TEMPO 2006/2007 2SM TSRA BKN020CB OVC040
     FM200800 19006KT 4SM -SHRA OVC010
     FM201000 18007KT 2SM BR OVC005
     FM201500 25017G24KT P6SM OVC015
     FM210000 31009KT P6SM SCT050=



000
FTUS44 KOHX 200400 AAJ
TAFCSV
TAF AMD
KCSV 200454Z 2005/2024 21004KT P6SM SCT010
     FM200800 21005KT P6SM VCTS BKN030CB
      TEMPO 2009/2011 1SM TSRA BKN010CB OVC030
     FM201100 19006KT 5SM -SHRA OVC020
     FM201500 23016G22KT P6SM OVC015=



000
FTUS44 KOHX 200400 AAI
TAFCSV
TAF AMD
KCSV 200433Z 2005/2024 21004KT P6SM BKN011 BKN020
     FM200800 21005KT P6SM VCTS BKN030CB
      TEMPO 2009/2011 1SM TSRA BKN010CB OVC030
     FM201100 19006KT 5SM -SHRA OVC020
     FM201500 23016G22KT P6SM OVC015=



000
FTUS44 KOHX 200400 AAI
TAFCSV
TAF AMD
KCSV 200433Z 2005/2024 21004KT P6SM BKN011 BKN020
     FM200800 21005KT P6SM VCTS BKN030CB
      TEMPO 2009/2011 1SM TSRA BKN010CB OVC030
     FM201100 19006KT 5SM -SHRA OVC020
     FM201500 23016G22KT P6SM OVC015=



000
FTUS44 KOHX 200300 AAH
TAFCSV
TAF AMD
KCSV 200326Z 2003/2024 21006KT P6SM VCTS SCT015CB
     FM200800 21005KT P6SM VCTS BKN030CB
      TEMPO 2009/2011 1SM TSRA BKN010CB OVC030
     FM201100 19006KT 5SM -SHRA OVC020
     FM201500 23016G22KT P6SM OVC015=



000
FTUS44 KOHX 200300 AAH
TAFCSV
TAF AMD
KCSV 200326Z 2003/2024 21006KT P6SM VCTS SCT015CB
     FM200800 21005KT P6SM VCTS BKN030CB
      TEMPO 2009/2011 1SM TSRA BKN010CB OVC030
     FM201100 19006KT 5SM -SHRA OVC020
     FM201500 23016G22KT P6SM OVC015=



000
FTUS44 KOHX 200200 AAG
TAFCSV
TAF AMD
KCSV 200244Z 2003/2024 21006KT P6SM VCTS BKN011 OVC030CB
     FM200800 21005KT P6SM VCTS BKN030CB
      TEMPO 2009/2011 1SM TSRA BKN010CB OVC030
     FM201100 19006KT 5SM -SHRA OVC020
     FM201500 23016G22KT P6SM OVC015=



000
FTUS44 KOHX 200200 AAF
TAFCSV
TAF AMD
KCSV 200211Z 2002/2024 21006KT P6SM VCTS BKN009 OVC013CB
     FM200800 21005KT P6SM VCTS BKN030CB
      TEMPO 2009/2011 1SM TSRA BKN010CB OVC030
     FM201100 19006KT 5SM -SHRA OVC020
     FM201500 23016G22KT P6SM OVC015=



000
FTUS44 KOHX 200200 AAF
TAFCSV
TAF AMD
KCSV 200211Z 2002/2024 21006KT P6SM VCTS BKN009 OVC013CB
     FM200800 21005KT P6SM VCTS BKN030CB
      TEMPO 2009/2011 1SM TSRA BKN010CB OVC030
     FM201100 19006KT 5SM -SHRA OVC020
     FM201500 23016G22KT P6SM OVC015=



000
FTUS44 KOHX 200100 AAE
TAFCSV
TAF AMD
KCSV 200148Z 2002/2024 23004KT P6SM VCTS BKN020CB OVC025
     FM200800 21005KT P6SM VCTS BKN030CB
      TEMPO 2009/2011 1SM TSRA BKN010CB OVC030
     FM201100 19006KT 5SM -SHRA OVC020
     FM201500 23016G22KT P6SM OVC015=



000
FTUS44 KOHX 200000 AAB
TAFCKV
TAF AMD
KCKV 200049Z 2001/2024 17007KT P6SM VCTS SCT012 SCT050CB BKN100
     FM200500 19010G20KT P6SM VCTS BKN040CB
      TEMPO 2005/2007 1SM TSRA BKN020CB OVC040
     FM200700 19006KT 4SM -SHRA OVC010
     FM200900 18007KT 2SM BR OVC005
     FM201500 25017G24KT P6SM OVC015=



000
FTUS44 KOHX 200000 AAB
TAFCKV
TAF AMD
KCKV 200049Z 2001/2024 17007KT P6SM VCTS SCT012 SCT050CB BKN100
     FM200500 19010G20KT P6SM VCTS BKN040CB
      TEMPO 2005/2007 1SM TSRA BKN020CB OVC040
     FM200700 19006KT 4SM -SHRA OVC010
     FM200900 18007KT 2SM BR OVC005
     FM201500 25017G24KT P6SM OVC015=



000
FTUS44 KOHX 200000 AAD
TAFCSV
TAF AMD
KCSV 200046Z 2001/2024 23003KT P6SM VCTS SCT025CB OVC050
     FM200800 21005KT P6SM VCTS BKN030CB
      TEMPO 2009/2011 1SM TSRA BKN010CB OVC030
     FM201100 19006KT 5SM -SHRA OVC020
     FM201500 23016G22KT P6SM OVC015=



000
FTUS44 KOHX 200000 AAD
TAFCSV
TAF AMD
KCSV 200046Z 2001/2024 23003KT P6SM VCTS SCT025CB OVC050
     FM200800 21005KT P6SM VCTS BKN030CB
      TEMPO 2009/2011 1SM TSRA BKN010CB OVC030
     FM201100 19006KT 5SM -SHRA OVC020
     FM201500 23016G22KT P6SM OVC015=



000
FTUS44 KOHX 200000 AAC
TAFCSV
TAF AMD
KCSV 200032Z 2001/2024 28003KT 6SM -TSRA BR SCT020 BKN025CB OVC050
     FM200800 21005KT P6SM VCTS BKN030CB
      TEMPO 2009/2011 1SM TSRA BKN010CB OVC030
     FM201100 19006KT 5SM -SHRA OVC020
     FM201500 23016G22KT P6SM OVC015=



000
FTUS44 KOHX 200000 AAB
TAFCSV
TAF AMD
KCSV 200023Z 2000/2024 28006KT 3SM BR VCTS BKN030CB OVC080
     FM200800 21005KT P6SM VCTS BKN030CB
      TEMPO 2009/2011 1SM TSRA BKN010CB OVC030
     FM201100 19006KT 5SM -SHRA OVC020
     FM201500 23016G22KT P6SM OVC015=



000
FTUS44 KOHX 200000 AAB
TAFCSV
TAF AMD
KCSV 200023Z 2000/2024 28006KT 3SM BR VCTS BKN030CB OVC080
     FM200800 21005KT P6SM VCTS BKN030CB
      TEMPO 2009/2011 1SM TSRA BKN010CB OVC030
     FM201100 19006KT 5SM -SHRA OVC020
     FM201500 23016G22KT P6SM OVC015=



000
FTUS44 KOHX 192300 AAA
TAFCSV
TAF AMD
KCSV 192358Z 2000/2024 19006KT 4SM -TSRA SCT040CB BKN070 OVC090
     FM200800 21005KT P6SM VCTS BKN030CB
      TEMPO 2009/2011 1SM TSRA BKN010CB OVC030
     FM201100 19006KT 5SM -SHRA OVC020
     FM201500 23016G22KT P6SM OVC015=



000
FTUS44 KOHX 192300 AAA
TAFCSV
TAF AMD
KCSV 192358Z 2000/2024 19006KT 4SM -TSRA SCT040CB BKN070 OVC090
     FM200800 21005KT P6SM VCTS BKN030CB
      TEMPO 2009/2011 1SM TSRA BKN010CB OVC030
     FM201100 19006KT 5SM -SHRA OVC020
     FM201500 23016G22KT P6SM OVC015=



000
FTUS44 KOHX 192300 AAA
TAFCSV
TAF AMD
KCSV 192350Z 2000/2024 25008G20KT 3SM -TSRA BKN030CB OVC090
      TEMPO 2000/2001 1/2SM +TSRA
     FM200800 21005KT P6SM VCTS BKN030CB
      TEMPO 2009/2011 1SM TSRA BKN010CB OVC030
     FM201100 19006KT 5SM -SHRA OVC020
     FM201500 23016G22KT P6SM OVC015=



000
FTUS44 KOHX 192300 AAA
TAFCKV
TAF AMD
KCKV 192339Z 2000/2024 24007KT P6SM VCTS BKN012 BKN030CB OVC100
     FM200500 19010G20KT P6SM VCTS BKN040CB
      TEMPO 2005/2007 1SM TSRA BKN020CB OVC040
     FM200700 19006KT 4SM -SHRA OVC010
     FM200900 18007KT 2SM BR OVC005
     FM201500 25017G24KT P6SM OVC015=



000
FTUS44 KOHX 192300 AAA
TAFCSV
TAF AMD
KCSV 192334Z 2000/2024 25012G30KT 3/4SM TSRA BKN025CB OVC040
      TEMPO 2000/2001 1/2SM +TSRA
     FM200800 21005KT P6SM VCTS BKN030CB
      TEMPO 2009/2011 1SM TSRA BKN010CB OVC030
     FM201100 19006KT 5SM -SHRA OVC020
     FM201500 23016G22KT P6SM OVC015=



000
FTUS44 KOHX 192300 AAA
TAFCSV
TAF AMD
KCSV 192331Z 2000/2024 22014G32KT 3/4SM TSRA BKN025CB OVC040
      TEMPO 2000/2001 1/2SM +TSRA
     FM200800 21005KT P6SM VCTS BKN030CB
      TEMPO 2009/2011 1SM TSRA BKN010CB OVC030
     FM201100 19006KT 5SM -SHRA OVC020
     FM201500 23016G22KT P6SM OVC015=



000
FTUS44 KOHX 192300 AAA
TAFCKV
TAF AMD
KCKV 192328Z 1923/2024 24012G20KT 6SM -TSRA SCT060CB OVC100
     FM200500 19010G20KT P6SM VCTS BKN040CB
      TEMPO 2005/2007 1SM TSRA BKN020CB OVC040
     FM200700 19006KT 4SM -SHRA OVC010
     FM200900 18007KT 2SM BR OVC005
     FM201500 25017G24KT P6SM OVC015=



000
FTUS44 KOHX 192300 AAA
TAFCSV
TAF AMD
KCSV 192327Z 1923/2024 22014G32KT 3/4SM TSRA SCT025CB BKN040 OVC060
      TEMPO 2000/2001 1/2SM +TSRA BKN025CB BKN040 OVC060
     FM200800 21005KT P6SM VCTS BKN030CB
      TEMPO 2009/2011 1SM TSRA BKN010CB OVC030
     FM201100 19006KT 5SM -SHRA OVC020
     FM201500 23016G22KT P6SM OVC015=



000
FTUS44 KOHX 192300 AAA
TAFCSV
TAF AMD
KCSV 192326Z 1923/2024 22014G32KT P6SM VCTS SCT025CB SCT040 BKN060
      TEMPO 2000/2001 1/2SM +TSRA BKN025CB BKN040 OVC060
     FM200800 21005KT P6SM VCTS BKN030CB
      TEMPO 2009/2011 1SM TSRA BKN010CB OVC030
     FM201100 19006KT 5SM -SHRA OVC020
     FM201500 23016G22KT P6SM OVC015=



000
FTUS44 KOHX 192300
TAFBNA
TAF
KBNA 192324Z 2000/2024 24007KT P6SM VCTS SCT040CB
     FM200600 19010G20KT P6SM VCTS BKN040CB
      TEMPO 2006/2008 1SM TSRA BKN020CB OVC040
     FM200800 19007KT 5SM -SHRA OVC020
     FM201000 20008KT 4SM BR OVC010
     FM201500 24016G22KT P6SM OVC015=



000
FTUS44 KOHX 192300
TAFCSV
TAF
KCSV 192324Z 2000/2024 24018G32KT P6SM VCTS SCT025CB SCT040 BKN060
      TEMPO 2000/2001 2SM TSRA BR BKN025CB BKN040 OVC060
     FM200800 21005KT P6SM VCTS BKN030CB
      TEMPO 2009/2011 1SM TSRA BKN010CB OVC030
     FM201100 19006KT 5SM -SHRA OVC020
     FM201500 23016G22KT P6SM OVC015=



000
FTUS44 KOHX 192300
TAFCKV
TAF
KCKV 192324Z 2000/2024 24010G20KT 6SM -TSRA SCT060CB OVC100
     FM200500 19010G20KT P6SM VCTS BKN040CB
      TEMPO 2005/2007 1SM TSRA BKN020CB OVC040
     FM200700 19006KT 4SM -SHRA OVC010
     FM200900 18007KT 2SM BR OVC005
     FM201500 25017G24KT P6SM OVC015=



000
FTUS44 KOHX 192300 AAE
TAFCKV
TAF AMD
KCKV 192301Z 1923/2018 24010G20KT 6SM -SHRA SCT040 SCT070 OVC100
     FM200200 21011KT 5SM BR BKN060
     FM200500 23012KT 4SM BR VCTS BKN020CB
     FM201000 26013G20KT P6SM VCSH BKN020=



000
FTUS44 KOHX 192200 AAF
TAFCSV
TAF AMD
KCSV 192239Z 1923/2018 18010G20KT P6SM VCTS SCT030CB BKN090
      TEMPO 1923/2002 4SM TSRA BKN020CB
     FM200200 23011KT 5SM BR BKN050
     FM201000 23013G18KT 5SM SHRA OVC015
     FM201200 25013G18KT P6SM BKN025=



000
FTUS44 KOHX 192200 AAF
TAFCSV
TAF AMD
KCSV 192239Z 1923/2018 18010G20KT P6SM VCTS SCT030CB BKN090
      TEMPO 1923/2002 4SM TSRA BKN020CB
     FM200200 23011KT 5SM BR BKN050
     FM201000 23013G18KT 5SM SHRA OVC015
     FM201200 25013G18KT P6SM BKN025=



000
FTUS44 KOHX 192200 AAD
TAFCKV
TAF AMD
KCKV 192225Z 1922/2018 21008KT P6SM VCTS SCT040CB SCT090 BKN120
      TEMPO 1922/1923 21019G30KT 1SM TSRA BKN060CB OVC110
     FM200200 21011KT 5SM BR BKN060
     FM200500 23012KT 4SM BR VCTS BKN020CB
     FM201000 26013G20KT P6SM VCSH BKN020=



000
FTUS44 KOHX 192200 AAE
TAFCSV
TAF AMD
KCSV 192219Z 1922/2018 19010KT P6SM VCTS BKN020CB BKN050 BKN090
      TEMPO 1923/2002 4SM TSRA BKN020CB
     FM200200 23011KT 5SM BR BKN050
     FM201000 23013G18KT 5SM SHRA OVC015
     FM201200 25013G18KT P6SM BKN025=



000
FTUS44 KOHX 192200 AAE
TAFCSV
TAF AMD
KCSV 192219Z 1922/2018 19010KT P6SM VCTS BKN020CB BKN050 BKN090
      TEMPO 1923/2002 4SM TSRA BKN020CB
     FM200200 23011KT 5SM BR BKN050
     FM201000 23013G18KT 5SM SHRA OVC015
     FM201200 25013G18KT P6SM BKN025=



000
FTUS44 KOHX 192200 AAD
TAFCSV
TAF AMD
KCSV 192202Z 1922/2018 18011G18KT P6SM VCTS SCT020CB BKN035 OVC070
      TEMPO 1923/2002 4SM TSRA BKN020CB
     FM200200 23011KT 5SM BR BKN050
     FM201000 23013G18KT 5SM SHRA OVC015
     FM201200 25013G18KT P6SM BKN025=



000
FTUS44 KOHX 192200 AAG
TAFBNA
TAF AMD
KBNA 192201Z 1922/2018 VRB06KT P6SM SCT090 BKN110 BKN200
     FM200300 22012KT P6SM BKN070
     FM200600 23013G20KT 4SM BR VCTS BKN020CB
     FM201200 26009KT P6SM VCSH BKN020=



000
FTUS44 KOHX 192200 AAG
TAFBNA
TAF AMD
KBNA 192201Z 1922/2018 VRB06KT P6SM SCT090 BKN110 BKN200
     FM200300 22012KT P6SM BKN070
     FM200600 23013G20KT 4SM BR VCTS BKN020CB
     FM201200 26009KT P6SM VCSH BKN020=



000
FTUS44 KOHX 192100 AAF
TAFBNA
TAF AMD
KBNA 192158Z 1922/2018 VRB05KT P6SM SCT090 BKN110 BKN200
     FM192200 22011G18KT P6SM VCTS SCT025 BKN035CB
      TEMPO 1922/2002 4SM TSRA BKN020CB
     FM200300 22012KT P6SM BKN070
     FM200600 23013G20KT 4SM BR VCTS BKN020CB
     FM201200 26009KT P6SM VCSH BKN020=



000
FTUS44 KOHX 192100 AAF
TAFBNA
TAF AMD
KBNA 192158Z 1922/2018 VRB05KT P6SM SCT090 BKN110 BKN200
     FM192200 22011G18KT P6SM VCTS SCT025 BKN035CB
      TEMPO 1922/2002 4SM TSRA BKN020CB
     FM200300 22012KT P6SM BKN070
     FM200600 23013G20KT 4SM BR VCTS BKN020CB
     FM201200 26009KT P6SM VCSH BKN020=



000
FTUS44 KOHX 192100 AAC
TAFCKV
TAF AMD
KCKV 192121Z 1921/2018 21008KT P6SM VCTS SCT040CB SCT090 BKN120
      TEMPO 1921/1922 25015G30KT 1SM TSRA BKN010CB BKN020
     FM200200 21011KT 5SM BR BKN060
     FM200500 23012KT 4SM BR VCTS BKN020CB
     FM201000 26013G20KT P6SM VCSH BKN020=



000
FTUS44 KOHX 192100 AAC
TAFCSV
TAF AMD
KCSV 192119Z 1921/2018 17007G19KT P6SM VCSH SCT020 BKN035 OVC070
     FM192200 22009G16KT P6SM VCTS SCT025 BKN035CB
      TEMPO 1923/2002 4SM TSRA BKN020CB
     FM200200 23011KT 5SM BR BKN050
     FM201000 23013G18KT 5SM SHRA OVC015
     FM201200 25013G18KT P6SM BKN025=



000
FTUS44 KOHX 192100 AAD
TAFBNA
TAF AMD
KBNA 192114Z 1921/2018 27011G22KT 6SM TSRA BKN040CB OVC060
     FM192200 22011G18KT P6SM VCTS SCT025 BKN035CB
      TEMPO 1922/2002 4SM TSRA BKN020CB
     FM200300 22012KT P6SM BKN070
     FM200600 23013G20KT 4SM BR VCTS BKN020CB
     FM201200 26009KT P6SM VCSH BKN020=



000
FTUS44 KOHX 192100 AAE
TAFBNA
TAF AMD
KBNA 192114Z 1921/2018 27011G22KT 6SM RA BKN040 OVC060
     FM192200 22011G18KT P6SM VCTS SCT025 BKN035CB
      TEMPO 1922/2002 4SM TSRA BKN020CB
     FM200300 22012KT P6SM BKN070
     FM200600 23013G20KT 4SM BR VCTS BKN020CB
     FM201200 26009KT P6SM VCSH BKN020=



000
FTUS44 KOHX 192100 AAC
TAFBNA
TAF AMD
KBNA 192113Z 1921/2018 27012G25KT 6SM TSRA BKN040CB OVC060
     FM192200 22011G18KT P6SM VCTS SCT025 BKN035CB
      TEMPO 1922/2002 4SM TSRA BKN020CB
     FM200300 22012KT P6SM BKN070
     FM200600 23013G20KT 4SM BR VCTS BKN020CB
     FM201200 26009KT P6SM VCSH BKN020=



000
FTUS44 KOHX 192100 AAB
TAFCSV
TAF AMD
KCSV 192111Z 1921/2018 17007KT P6SM VCSH SCT020 BKN040 OVC070
     FM192200 22009G16KT P6SM VCTS SCT025 BKN035CB
      TEMPO 1923/2002 4SM TSRA BKN020CB
     FM200200 23011KT 5SM BR BKN050
     FM201000 23013G18KT 5SM SHRA OVC015
     FM201200 25013G18KT P6SM BKN025=



000
FTUS44 KOHX 192100 AAB
TAFCSV
TAF AMD
KCSV 192111Z 1921/2018 17007KT P6SM VCSH SCT020 BKN040 OVC070
     FM192200 22009G16KT P6SM VCTS SCT025 BKN035CB
      TEMPO 1923/2002 4SM TSRA BKN020CB
     FM200200 23011KT 5SM BR BKN050
     FM201000 23013G18KT 5SM SHRA OVC015
     FM201200 25013G18KT P6SM BKN025=



000
FTUS44 KOHX 192100 AAB
TAFCKV
TAF AMD
KCKV 192110Z 1921/2018 21008KT P6SM VCTS SCT040CB SCT090 BKN120
      TEMPO 1921/1922 25015G30KT 2SM TSRA BKN020CB
     FM200200 21011KT 5SM BR BKN060
     FM200500 23012KT 4SM BR VCTS BKN020CB
     FM201000 26013G20KT P6SM VCSH BKN020=



000
FTUS44 KOHX 192100 AAB
TAFBNA
TAF AMD
KBNA 192109Z 1921/2018 27012G25KT 6SM TSRA BKN040CB OVC060
     FM192200 22011G18KT P6SM VCTS SCT025 BKN035CB
      TEMPO 1922/2002 4SM TSRA BKN020CB
     FM200300 22012KT P6SM BKN070
     FM200600 23013G20KT 4SM BR VCTS BKN020CB
     FM201200 26009KT P6SM VCSH BKN020=



000
FTUS44 KOHX 191900 AAA
TAFBNA
TAF AMD
KBNA 191948Z 1920/2018 19015G25KT P6SM TSRA BKN035CB
     FM192200 22011G18KT P6SM VCTS SCT025 BKN035CB
      TEMPO 1922/2002 4SM TSRA BKN020CB
     FM200300 22012KT P6SM BKN070
     FM200600 23013G20KT 4SM BR VCTS BKN020CB
     FM201200 26009KT P6SM VCSH BKN020=



000
FTUS44 KOHX 191900 AAA
TAFCSV
TAF AMD
KCSV 191924Z 1919/2018 20011G21KT P6SM VCSH BKN040
     FM192200 22009G16KT P6SM VCTS SCT025 BKN035CB
      TEMPO 1923/2002 4SM TSRA BKN020CB
     FM200200 23011KT 5SM BR BKN050
     FM201000 23013G18KT 5SM SHRA OVC015
     FM201200 25013G18KT P6SM BKN025=



000
FTUS44 KOHX 191900 AAA
TAFCKV
TAF AMD
KCKV 191903Z 1919/2018 20010G18KT P6SM VCTS BKN025CB BKN035
      TEMPO 1919/1921 25015G30KT 2SM TSRA BKN020CB
     FM200200 21011KT 5SM BR BKN060
     FM200500 23012KT 4SM BR VCTS BKN020CB
     FM201000 26013G20KT P6SM VCSH BKN020=



000
FTUS44 KOHX 191900 AAA
TAFCKV
TAF AMD
KCKV 191903Z 1919/2018 20010G18KT P6SM VCTS BKN025CB BKN035
      TEMPO 1919/1921 25015G30KT 2SM TSRA BKN020CB
     FM200200 21011KT 5SM BR BKN060
     FM200500 23012KT 4SM BR VCTS BKN020CB
     FM201000 26013G20KT P6SM VCSH BKN020=



000
FTUS44 KOHX 191700 RRA
TAFCKV
TAF
KCKV 191750Z 1918/2018 23008KT P6SM VCSH BKN030
     FM192200 23012G20KT P6SM VCTS SCT025 BKN035CB
      TEMPO 1922/2002 4SM TSRA BKN020CB
     FM200200 21011KT 5SM BR BKN060
     FM200500 23012KT 4SM BR VCTS BKN020CB
     FM201000 26013G20KT P6SM VCSH BKN020=



000
FTUS44 KOHX 191700 RRA
TAFCSV
TAF
KCSV 191750Z 1918/2018 20008KT P6SM VCSH BKN030 OVC035
     FM192200 22009G16KT P6SM VCTS SCT025 BKN035CB
      TEMPO 1923/2002 4SM TSRA BKN020CB
     FM200200 23011KT 5SM BR BKN050
     FM201000 23013G18KT 5SM SHRA OVC015
     FM201200 25013G18KT P6SM BKN025=



000
FTUS44 KOHX 191700 RRA
TAFBNA
TAF
KBNA 191750Z 1918/2018 21009G15KT P6SM VCSH BKN035
     FM192200 22011G18KT P6SM VCTS SCT025 BKN035CB
      TEMPO 1922/2002 4SM TSRA BKN020CB
     FM200300 22012KT P6SM BKN070
     FM200600 23013G20KT 4SM BR VCTS BKN020CB
     FM201200 26009KT P6SM VCSH BKN020=



000
FTUS44 KOHX 191600 AAB
TAFCSV
TAF AMD
KCSV 191639Z 1917/2012 15005KT P6SM VCSH SCT030 BKN040
     FM191800 20008KT P6SM VCSH BKN030 OVC035
     FM192200 22009G16KT P6SM VCTS SCT025 BKN035CB=



000
FTUS44 KOHX 191500 AAB
TAFBNA
TAF AMD
KBNA 191516Z 1915/2012 21009G15KT P6SM VCSH BKN015 OVC035
      TEMPO 1915/1916 25005KT 5SM RA BR BKN005 OVC015
     FM192200 22011G18KT P6SM VCTS SCT025 BKN035CB=



000
FTUS44 KOHX 191500 AAA
TAFCSV
TAF AMD
KCSV 191513Z 1915/2012 15005KT 5SM BR VCSH SCT008 BKN020
      TEMPO 1915/1917 1SM +RA BR BKN010
     FM191800 20008KT P6SM VCSH BKN025 OVC035
     FM192200 22009G16KT P6SM VCTS SCT025 BKN035CB=



000
FTUS44 KOHX 191400 AAA
TAFBNA
TAF AMD
KBNA 191426Z 1914/2012 16005KT 5SM RA BKN006 OVC025
     FM191500 21009G15KT P6SM VCSH BKN015 OVC035
     FM192200 22011G18KT P6SM VCTS SCT025 BKN035CB=



000
FTUS44 KOHX 191100
TAFBNA
TAF
KBNA 191120Z 1912/2012 16005KT 5SM RA BKN006 OVC025
      TEMPO 1912/1914 1SM +RA BR OVC005
     FM191500 21009G15KT P6SM VCSH BKN025 OVC035
     FM192200 22011G18KT P6SM VCTS SCT025 BKN035CB=



000
FTUS44 KOHX 191100
TAFCKV
TAF
KCKV 191120Z 1912/2012 15006KT 5SM RA BR FEW009 OVC050
      TEMPO 1912/1914 1SM +RA BR OVC005
     FM191500 21009G15KT P6SM VCSH BKN025 OVC035
     FM192200 23012G20KT P6SM VCTS SCT025 BKN035CB=



000
FTUS44 KOHX 191100
TAFBNA
TAF
KBNA 191120Z 1912/2012 16005KT 5SM RA BKN006 OVC025
      TEMPO 1912/1914 1SM +RA BR OVC005
     FM191500 21009G15KT P6SM VCSH BKN025 OVC035
     FM192200 22011G18KT P6SM VCTS SCT025 BKN035CB=



000
FTUS44 KOHX 191100
TAFCSV
TAF
KCSV 191120Z 1912/2012 15005KT 5SM SHRA BR SCT008 OVC025
      TEMPO 1912/1914 1SM +RA BR OVC005
     FM191500 20008KT P6SM VCSH BKN025 OVC035
     FM192200 22009G16KT P6SM VCTS SCT025 BKN035CB=



000
FTUS44 KOHX 191100
TAFCKV
TAF
KCKV 191120Z 1912/2012 15006KT 5SM RA BR FEW009 OVC050
      TEMPO 1912/1914 1SM +RA BR OVC005
     FM191500 21009G15KT P6SM VCSH BKN025 OVC035
     FM192200 23012G20KT P6SM VCTS SCT025 BKN035CB=



000
FTUS44 KOHX 191100
TAFCSV
TAF
KCSV 191120Z 1912/2012 15005KT 5SM SHRA BR SCT008 OVC025
      TEMPO 1912/1914 1SM +RA BR OVC005
     FM191500 20008KT P6SM VCSH BKN025 OVC035
     FM192200 22009G16KT P6SM VCTS SCT025 BKN035CB=



000
FTUS44 KOHX 191000 AAA
TAFCSV
TAF AMD
KCSV 191010Z 1910/2006 14006KT P6SM VCSH SCT015 BKN040
     FM191100 15006KT 4SM RA BR OVC015
      TEMPO 1911/1915 1SM +RA BR OVC005
     FM191800 20008KT P6SM VCSH OVC025
     FM192100 23009KT P6SM VCTS BKN050CB=



000
FTUS44 KOHX 191000 AAC
TAFBNA
TAF AMD
KBNA 191008Z 1910/2006 16005KT 6SM RA BR BKN025 OVC060
      TEMPO 1910/1914 1SM +RA BR BKN007 OVC015
     FM191800 22010KT P6SM VCSH OVC025
     FM192100 22010G18KT P6SM VCTS BKN050CB=



000
FTUS44 KOHX 191000 AAB
TAFCKV
TAF AMD
KCKV 191008Z 1910/2006 13006KT 5SM RA BR OVC015
      TEMPO 1910/1914 1SM +RA BR BKN005 OVC015
     FM191800 23010G18KT P6SM VCSH OVC025
     FM192100 22010G18KT P6SM VCTS BKN050CB=



000
FTUS44 KOHX 190900 AAB
TAFBNA
TAF AMD
KBNA 190956Z 1910/2006 16005KT 6SM RA BR BKN025 OVC060
      TEMPO 1911/1915 1SM +RA BR BKN007 OVC015
     FM191800 22010KT P6SM VCSH OVC025
     FM192100 22010G18KT P6SM VCTS BKN050CB=



000
FTUS44 KOHX 190900 AAB
TAFBNA
TAF AMD
KBNA 190956Z 1910/2006 16005KT 6SM RA BR BKN025 OVC060
      TEMPO 1911/1915 1SM +RA BR BKN007 OVC015
     FM191800 22010KT P6SM VCSH OVC025
     FM192100 22010G18KT P6SM VCTS BKN050CB=



000
FTUS44 KOHX 190800 AAA
TAFBNA
TAF AMD
KBNA 190811Z 1908/2006 15005KT 6SM -SHRA BR SCT035 OVC060
      TEMPO 1911/1915 2SM SHRA BR BKN007 OVC015
     FM191800 22010KT P6SM VCSH OVC025
     FM192100 22010G18KT P6SM VCTS BKN050CB=



000
FTUS44 KOHX 190700 AAA
TAFCKV
TAF AMD
KCKV 190701Z 1907/2006 10006KT 5SM -SHRA BR BKN030 OVC050
      TEMPO 1911/1915 2SM SHRA BR BKN007 OVC015
     FM191800 23010G18KT P6SM VCSH OVC025
     FM192100 22010G18KT P6SM VCTS BKN050CB=



000
FTUS44 KOHX 190700 AAA
TAFCKV
TAF AMD
KCKV 190701Z 1907/2006 10006KT 5SM -SHRA BR BKN030 OVC050
      TEMPO 1911/1915 2SM SHRA BR BKN007 OVC015
     FM191800 23010G18KT P6SM VCSH OVC025
     FM192100 22010G18KT P6SM VCTS BKN050CB=



000
FTUS44 KOHX 190500
TAFBNA
TAF
KBNA 190520Z 1906/2006 16005KT P6SM VCSH BKN050
     FM190800 16005KT 4SM -SHRA OVC025
      TEMPO 1911/1915 2SM SHRA BR BKN007 OVC015
     FM191800 22010KT P6SM VCSH OVC025
     FM192100 22010G18KT P6SM VCTS BKN050CB=



000
FTUS44 KOHX 190500
TAFCSV
TAF
KCSV 190520Z 1906/2006 14004KT P6SM VCSH BKN040
     FM190900 14004KT 4SM -SHRA BR OVC015
      TEMPO 1912/1916 2SM SHRA BR OVC005
     FM191800 20008KT P6SM VCSH OVC025
     FM192100 23009KT P6SM VCTS BKN050CB=



000
FTUS44 KOHX 190500
TAFCKV
TAF
KCKV 190520Z 1906/2006 12005KT P6SM VCSH BKN050
     FM190700 12005KT 4SM -SHRA OVC025
      TEMPO 1911/1915 2SM SHRA BR BKN007 OVC015
     FM191800 23010G18KT P6SM VCSH OVC025
     FM192100 22010G18KT P6SM VCTS BKN050CB=



000
FTUS44 KOHX 190500
TAFBNA
TAF
KBNA 190520Z 1906/2006 16005KT P6SM VCSH BKN050
     FM190800 16005KT 4SM -SHRA OVC025
      TEMPO 1911/1915 2SM SHRA BR BKN007 OVC015
     FM191800 22010KT P6SM VCSH OVC025
     FM192100 22010G18KT P6SM VCTS BKN050CB=



000
FTUS44 KOHX 182300
TAFCSV
TAF
KCSV 182326Z 1900/1924 14004KT P6SM VCSH BKN040
     FM190600 10003KT 4SM -SHRA BR OVC025
     FM191100 14006KT 2SM SHRA BR OVC005
     FM191800 20008KT P6SM VCSH OVC025
     FM192100 23009KT P6SM VCTS BKN050CB=



000
FTUS44 KOHX 182300
TAFCKV
TAF
KCKV 182326Z 1900/1924 10005KT P6SM SCT050 BKN150
     FM190700 12005KT 4SM -SHRA OVC025
     FM191000 12004KT 2SM SHRA BKN007 OVC015
     FM191800 23010G18KT P6SM VCSH OVC025
     FM192100 24010G18KT P6SM VCTS BKN050CB=



000
FTUS44 KOHX 182300
TAFBNA
TAF
KBNA 182326Z 1900/1924 16007KT P6SM VCSH BKN050 BKN150
     FM190600 15005KT 4SM -SHRA OVC025
     FM190900 14005KT 2SM SHRA BR BKN007 OVC015
     FM191800 22010KT P6SM VCSH OVC025
     FM192100 22010G18KT P6SM VCTS BKN050CB=



000
FTUS44 KOHX 182200 AAA
TAFBNA
TAF AMD
KBNA 182225Z 1822/1918 07006KT P6SM BKN040 BKN150
      TEMPO 1822/1824 4SM -SHRA OVC040
     FM190300 08007KT 6SM -SHRA OVC035
     FM190800 14005KT 4SM -SHRA OVC015=



000
FTUS44 KOHX 181700
TAFCSV
TAF
KCSV 181720Z 1818/1918 07007KT P6SM FEW035 BKN150
     FM190300 10003KT 6SM -SHRA OVC035
     FM191100 14008KT 4SM -SHRA OVC015=



000
FTUS44 KOHX 181700
TAFBNA
TAF
KBNA 181720Z 1818/1918 07003KT P6SM SCT035 BKN150 BKN250
     FM190300 08007KT 6SM -SHRA OVC035
     FM190800 14005KT 4SM -SHRA OVC015=



000
FTUS44 KOHX 181700
TAFCKV
TAF
KCKV 181720Z 1818/1918 12008KT P6SM BKN150
     FM190300 07004KT 6SM -SHRA OVC035
     FM190800 10004KT 4SM -SHRA OVC015=



000
FTUS44 KOHX 181300 AAC
TAFCKV
TAF AMD
KCKV 181359Z 1814/1912 10005KT P6SM SKC
     FM190300 11007KT 4SM -SHRA BR OVC025=



000
FTUS44 KOHX 181300 AAB
TAFBNA
TAF AMD
KBNA 181358Z 1814/1912 06003KT P6SM BKN250
     FM190300 13007KT 4SM -SHRA BR OVC025=



000
FTUS44 KOHX 181300 AAB
TAFCKV
TAF AMD
KCKV 181322Z 1813/1912 00000KT 4SM BR FEW001
     FM181400 09006KT P6SM SCT035
     FM190300 11007KT 4SM -SHRA BR OVC025=



000
FTUS44 KOHX 181300 AAA
TAFBNA
TAF AMD
KBNA 181322Z 1813/1912 05004KT 5SM BR BKN250
     FM181400 09006KT P6SM SCT035
     FM190300 13007KT 4SM -SHRA BR OVC025=



    US Dept of Commerce
    National Oceanic and Atmospheric Administration
    National Weather Service
    1325 East West Highway
    Silver Spring, MD 20910
    Page Author: NWS Internet Services Team
Disclaimer
Information Quality
Credits
Glossary
Privacy Policy
Freedom of Information Act (FOIA)
About Us
Career Opportunities